Terminal Aerodrome Forecast
Issued by NWS Binghamton, NY

Home | Current Version | Previous Version | Text Only | Print | Product List | Glossary On
Versions: 1 2 3 4 5 6 7 8 9 10 11 12 13 14 15 16 17 18
000
FTUS41 KBGM 301411 AAA
TAFAVP
TAF AMD
KAVP 301411Z 3014/3112 22005KT P6SM OVC015
      TEMPO 3014/3015 5SM HZ OVC020
     FM301500 23010KT P6SM SCT015 OVC040
      TEMPO 3015/3017 2SM TSRA OVC015CB
     FM301700 25007KT P6SM SCT050 BKN250
     FM310000 VRB03KT P6SM SKC=

USA.gov is the U.S. government's official web portal to all federal, state and local government web resources and services.